Time;durP1;ratioP1;P1;durP2;ratioP2;P2;SDS_P1;SDS_P2;PMS_P1;PMS_P2;Temp;Humidity;BMP_temperature;BMP_pressure;BME280_temperature;BME280_humidity;BME280_pressure;Samples;Min_cycle;Max_cycle;Signal;HPM_P1;HPM_P2
2021/08/10 00:00:46;;;;;;;9.70;4.57;;;15.90;98.10;;;;;;5054613;28;20033;-75
2021/08/10 00:03:12;;;;;;;8.25;4.47;;;15.90;98.10;;;;;;5055834;28;20086;-74
2021/08/10 00:05:38;;;;;;;9.27;4.40;;;15.90;98.10;;;;;;5055845;28;20025;-75
2021/08/10 00:08:04;;;;;;;7.85;4.47;;;15.90;98.10;;;;;;5054499;28;20445;-74
2021/08/10 00:10:30;;;;;;;8.68;4.00;;;15.80;98.10;;;;;;5054448;28;20040;-75
2021/08/10 00:12:56;;;;;;;10.02;4.40;;;15.90;98.10;;;;;;5054414;28;20033;-74
2021/08/10 00:15:21;;;;;;;8.13;4.03;;;15.80;98.10;;;;;;5054178;28;20091;-73
2021/08/10 00:17:47;;;;;;;8.55;4.55;;;15.80;98.10;;;;;;5055583;28;20074;-75
2021/08/10 00:20:13;;;;;;;8.32;4.18;;;15.80;98.10;;;;;;5054404;28;20127;-74
2021/08/10 00:22:39;;;;;;;7.50;4.35;;;15.80;98.10;;;;;;5055478;28;20068;-74
2021/08/10 00:25:05;;;;;;;9.18;4.60;;;15.70;98.20;;;;;;5055765;28;20029;-75
2021/08/10 00:27:31;;;;;;;8.25;5.07;;;15.70;98.20;;;;;;5037230;28;20032;-74
2021/08/10 00:29:56;;;;;;;6.57;4.10;;;15.80;98.50;;;;;;5053993;28;20040;-74
2021/08/10 00:32:22;;;;;;;8.32;4.60;;;15.70;98.20;;;;;;5055127;28;20488;-74
2021/08/10 00:34:48;;;;;;;8.70;4.65;;;15.70;98.20;;;;;;5053732;28;20021;-75
2021/08/10 00:37:13;;;;;;;9.85;5.00;;;15.70;98.20;;;;;;5037267;28;20025;-74
2021/08/10 00:39:39;;;;;;;7.43;4.43;;;15.70;98.30;;;;;;5054922;28;20029;-75
2021/08/10 00:42:05;;;;;;;9.00;5.40;;;15.70;98.20;;;;;;5054985;28;20028;-75
2021/08/10 00:44:31;;;;;;;9.65;4.68;;;15.70;98.20;;;;;;5053595;28;20458;-75
2021/08/10 00:46:56;;;;;;;8.13;4.57;;;15.70;98.20;;;;;;5054046;28;20017;-74
2021/08/10 00:49:22;;;;;;;8.38;5.13;;;15.60;98.20;;;;;;5036760;28;20024;-75
2021/08/10 00:51:50;;;;;;;11.35;4.90;;;15.70;98.20;;;;;;5053456;28;20112;-75
2021/08/10 00:54:15;;;;;;;7.47;4.40;;;15.60;98.30;;;;;;5066808;28;20131;-75
2021/08/10 00:56:41;;;;;;;10.32;4.38;;;15.60;98.30;;;;;;5074646;28;20477;-74
2021/08/10 00:59:07;;;;;;;9.32;4.65;;;15.60;98.20;;;;;;5074544;28;20472;-74
2021/08/10 01:01:33;;;;;;;9.70;5.05;;;15.60;98.30;;;;;;5056991;28;20031;-75
2021/08/10 01:03:58;;;;;;;10.90;5.07;;;15.60;98.30;;;;;;5072899;28;20031;-75
2021/08/10 01:06:32;;;;;;;9.18;5.18;;;15.60;98.30;;;;;;5074707;28;20025;-75
2021/08/10 01:09:09;;;;;;;8.32;4.63;;;15.50;98.30;;;;;;5074455;28;20074;-74
2021/08/10 01:11:40;;;;;;;8.23;5.00;;;15.60;98.30;;;;;;5074326;28;20044;-74
2021/08/10 01:14:29;;;;;;;9.20;4.90;;;15.60;98.40;;;;;;5074547;28;20033;-74
2021/08/10 01:17:29;;;;;;;9.35;4.80;;;15.60;98.40;;;;;;5074027;28;20357;-75
2021/08/10 01:20:04;;;;;;;9.60;4.30;;;15.60;98.40;;;;;;5071545;28;20033;-74
2021/08/10 01:22:30;;;;;;;18.33;5.97;;;15.60;98.40;;;;;;5072878;28;20032;-74
2021/08/10 01:25:30;;;;;;;11.30;5.82;;;15.50;98.40;;;;;;5073490;28;20039;-73
2021/08/10 01:28:41;;;;;;;10.73;5.35;;;15.50;98.40;;;;;;5072508;28;20119;-75
2021/08/10 01:31:06;;;;;;;13.02;5.90;;;15.50;98.40;;;;;;5073846;28;20037;-75
2021/08/10 01:33:43;;;;;;;8.25;5.40;;;15.50;98.40;;;;;;5073955;28;20107;-74
2021/08/10 01:36:10;;;;;;;11.43;5.57;;;15.50;98.50;;;;;;5072667;28;20043;-74
2021/08/10 01:38:38;;;;;;;11.05;6.13;;;15.50;98.50;;;;;;5073904;28;20032;-74
2021/08/10 01:41:04;;;;;;;10.00;5.82;;;15.50;98.50;;;;;;5074186;28;20029;-73
2021/08/10 01:43:31;;;;;;;10.65;5.55;;;15.50;98.50;;;;;;5072809;28;20036;-74
2021/08/10 01:45:58;;;;;;;8.43;5.15;;;15.50;98.50;;;;;;5073815;28;20025;-73
2021/08/10 01:48:25;;;;;;;9.75;5.10;;;15.50;98.60;;;;;;5073693;28;20358;-75
2021/08/10 01:50:51;;;;;;;10.27;5.47;;;15.50;98.60;;;;;;5073988;28;20032;-74
2021/08/10 01:53:18;;;;;;;10.95;5.43;;;15.50;98.60;;;;;;5056120;28;20036;-74
2021/08/10 01:55:44;;;;;;;8.65;4.80;;;15.50;98.60;;;;;;5073756;28;20459;-74
2021/08/10 01:58:11;;;;;;;9.30;5.78;;;15.50;98.70;;;;;;5073835;28;20029;-73
2021/08/10 02:00:39;;;;;;;10.82;5.43;;;15.50;98.60;;;;;;5072270;28;20068;-74
2021/08/10 02:03:07;;;;;;;12.25;6.68;;;15.60;98.70;;;;;;5056096;28;20123;-74
2021/08/10 02:05:34;;;;;;;8.98;4.80;;;15.60;98.70;;;;;;5073797;28;20023;-73
2021/08/10 02:08:00;;;;;;;10.23;5.53;;;15.60;98.70;;;;;;5072256;28;20388;-74
2021/08/10 02:10:28;;;;;;;9.50;5.50;;;15.60;98.70;;;;;;5072479;28;20093;-75
2021/08/10 02:12:54;;;;;;;11.57;5.90;;;15.60;98.70;;;;;;5073462;28;20071;-74
2021/08/10 02:15:20;;;;;;;11.20;5.40;;;15.60;98.70;;;;;;5073399;28;20121;-74
2021/08/10 02:17:48;;;;;;;8.98;5.65;;;15.50;98.70;;;;;;5072099;28;20039;-75
2021/08/10 02:20:14;;;;;;;15.48;6.10;;;15.60;98.70;;;;;;5073141;28;20060;-74
2021/08/10 02:22:42;;;;;;;10.60;5.85;;;15.50;98.70;;;;;;5072137;28;20048;-73
2021/08/10 02:25:12;;;;;;;10.48;5.57;;;15.60;98.80;;;;;;5072259;28;20028;-74
2021/08/10 02:27:58;;;;;;;12.73;5.47;;;15.60;98.70;;;;;;5072974;28;20500;-74
2021/08/10 02:30:30;;;;;;;12.95;5.60;;;15.60;98.80;;;;;;5073208;28;20050;-73
2021/08/10 02:32:57;;;;;;;12.38;6.07;;;15.60;98.80;;;;;;5073483;28;20036;-74
2021/08/10 02:35:26;;;;;;;9.98;6.10;;;15.60;98.80;;;;;;5071811;28;20421;-74
2021/08/10 02:37:54;;;;;;;11.68;5.50;;;15.60;98.70;;;;;;5074210;28;20028;-74
2021/08/10 02:40:23;;;;;;;10.77;5.53;;;15.60;98.70;;;;;;5075379;28;20077;-74
2021/08/10 02:42:53;;;;;;;7.80;5.22;;;15.50;98.70;;;;;;5075472;28;20038;-74
2021/08/10 02:45:19;;;;;;;9.18;5.85;;;15.50;98.70;;;;;;5076844;28;20104;-74
2021/08/10 02:47:52;;;;;;;9.82;5.80;;;15.50;98.70;;;;;;5075866;28;20451;-72
2021/08/10 02:50:19;;;;;;;11.80;5.85;;;15.50;98.70;;;;;;5075850;28;20487;-73
2021/08/10 02:52:45;;;;;;;10.90;5.57;;;15.50;98.70;;;;;;5059506;28;20035;-74
2021/08/10 02:55:11;;;;;;;11.70;6.25;;;15.50;98.70;;;;;;5075950;28;20056;-74
2021/08/10 02:57:58;;;;;;;9.98;5.38;;;15.50;98.70;;;;;;5075687;28;20078;-74
2021/08/10 03:00:26;;;;;;;13.43;5.22;;;15.50;98.80;;;;;;5076944;28;20021;-74
2021/08/10 03:02:56;;;;;;;10.50;5.55;;;15.40;98.70;;;;;;5076780;28;20036;-74
2021/08/10 03:05:23;;;;;;;12.15;5.72;;;15.50;98.70;;;;;;5075667;28;20021;-75
2021/08/10 03:07:56;;;;;;;8.85;5.40;;;15.40;98.70;;;;;;5075702;28;20028;-75
2021/08/10 03:10:27;;;;;;;9.93;5.38;;;15.40;98.70;;;;;;5076683;28;20016;-75
2021/08/10 03:12:55;;;;;;;11.65;6.10;;;15.40;98.70;;;;;;5076603;28;20049;-75
2021/08/10 03:15:27;;;;;;;12.32;5.20;;;15.40;98.80;;;;;;5075445;28;20017;-75
2021/08/10 03:17:57;;;;;;;10.52;4.75;;;15.40;98.80;;;;;;5076840;28;20048;-75
2021/08/10 03:20:23;;;;;;;10.15;5.35;;;15.40;98.80;;;;;;5076402;28;20020;-75
2021/08/10 03:22:51;;;;;;;10.73;5.75;;;15.40;98.80;;;;;;5076356;28;20473;-75
2021/08/10 03:25:19;;;;;;;9.88;5.40;;;15.40;98.80;;;;;;5075248;28;20059;-74
2021/08/10 03:27:49;;;;;;;10.95;5.40;;;15.30;98.80;;;;;;5076039;28;20020;-74
2021/08/10 03:30:16;;;;;;;10.85;5.85;;;15.30;98.80;;;;;;5075189;28;20350;-75
2021/08/10 03:32:44;;;;;;;10.85;5.70;;;15.40;98.80;;;;;;5076146;28;20075;-75
2021/08/10 03:35:10;;;;;;;11.50;5.32;;;15.40;98.80;;;;;;5075307;28;20064;-74
2021/08/10 03:37:36;;;;;;;10.38;5.63;;;15.30;98.70;;;;;;5075961;28;20374;-75
2021/08/10 03:40:05;;;;;;;10.80;5.78;;;15.30;98.70;;;;;;5074712;28;20040;-74
2021/08/10 03:42:32;;;;;;;12.35;6.10;;;15.30;98.80;;;;;;5074639;28;20032;-73
2021/08/10 03:44:58;;;;;;;12.40;6.53;;;15.30;98.80;;;;;;5075749;28;20345;-75
2021/08/10 03:47:24;;;;;;;11.48;6.30;;;15.30;98.70;;;;;;5074098;28;20481;-75
2021/08/10 03:49:52;;;;;;;15.77;6.28;;;15.30;98.80;;;;;;5074709;28;20074;-75
2021/08/10 03:52:18;;;;;;;11.57;5.50;;;15.20;98.80;;;;;;5075878;28;20029;-75
2021/08/10 03:54:44;;;;;;;14.43;6.95;;;15.30;98.80;;;;;;5075939;28;20078;-74
2021/08/10 03:57:14;;;;;;;12.60;5.60;;;15.30;98.80;;;;;;5076308;28;20021;-75
2021/08/10 03:59:41;;;;;;;13.88;6.38;;;15.20;98.80;;;;;;5076215;28;20028;-75
2021/08/10 04:02:09;;;;;;;11.55;5.75;;;15.20;98.80;;;;;;5072421;28;20029;-75
2021/08/10 04:04:35;;;;;;;10.60;5.40;;;15.20;99.00;;;;;;5075048;28;20107;-74
2021/08/10 04:07:04;;;;;;;13.45;6.45;;;15.20;98.80;;;;;;5057513;28;20430;-73
2021/08/10 04:09:33;;;;;;;10.15;6.07;;;15.20;98.80;;;;;;5075785;28;20071;-75
2021/08/10 04:11:59;;;;;;;13.82;5.45;;;15.20;98.80;;;;;;5075927;28;20033;-74
2021/08/10 04:14:25;;;;;;;14.93;5.78;;;15.20;98.80;;;;;;5074173;28;20024;-73
2021/08/10 04:16:57;;;;;;;11.57;5.80;;;15.20;98.80;;;;;;5073890;28;20357;-74
2021/08/10 04:19:27;;;;;;;15.30;5.90;;;15.20;98.80;;;;;;5075445;28;20020;-74
2021/08/10 04:21:53;;;;;;;9.38;4.82;;;15.20;99.10;;;;;;5074253;28;20078;-74
2021/08/10 04:24:19;;;;;;;10.50;4.95;;;15.10;98.80;;;;;;5074135;28;20020;-74
2021/08/10 04:26:45;;;;;;;11.82;5.25;;;15.10;98.80;;;;;;5075158;28;20027;-74
2021/08/10 04:29:10;;;;;;;14.75;5.75;;;15.20;98.90;;;;;;5073652;28;20536;-75
2021/08/10 04:31:36;;;;;;;13.27;5.45;;;15.10;98.80;;;;;;5073854;28;20025;-75
2021/08/10 04:34:02;;;;;;;11.75;5.78;;;15.10;98.80;;;;;;5057271;28;20025;-74
2021/08/10 04:36:27;;;;;;;15.73;6.15;;;15.10;98.90;;;;;;5057351;28;20368;-74
2021/08/10 04:38:53;;;;;;;10.95;5.68;;;15.10;98.90;;;;;;5074861;28;20029;-74
2021/08/10 04:41:19;;;;;;;14.13;5.22;;;15.10;99.10;;;;;;5074719;28;20064;-72
2021/08/10 04:43:44;;;;;;;10.65;5.22;;;15.10;98.90;;;;;;5073675;28;20055;-74
2021/08/10 04:46:10;;;;;;;11.07;5.60;;;15.10;98.90;;;;;;5057050;28;20111;-73
2021/08/10 04:48:35;;;;;;;10.40;4.78;;;15.10;98.90;;;;;;5057009;28;20471;-74
2021/08/10 04:51:01;;;;;;;8.70;5.15;;;15.10;99.00;;;;;;5073711;28;20020;-73
2021/08/10 04:53:27;;;;;;;10.10;5.20;;;15.00;98.90;;;;;;5073670;28;20387;-73
2021/08/10 04:55:52;;;;;;;13.82;6.30;;;15.00;99.00;;;;;;5074355;28;20035;-73
2021/08/10 04:58:18;;;;;;;10.07;5.75;;;15.00;99.00;;;;;;5056657;28;20119;-73
2021/08/10 05:00:47;;;;;;;10.77;5.25;;;15.00;99.00;;;;;;5071197;28;20545;-73
2021/08/10 05:03:13;;;;;;;15.35;5.65;;;15.00;99.00;;;;;;5052966;28;20067;-74
2021/08/10 05:05:39;;;;;;;11.45;5.20;;;15.00;99.10;;;;;;5036050;28;20071;-73
2021/08/10 05:08:06;;;;;;;12.50;5.88;;;15.10;99.10;;;;;;5035625;28;20047;-73
2021/08/10 05:10:32;;;;;;;9.25;5.10;;;15.00;99.10;;;;;;5051943;28;20163;-74
2021/08/10 05:12:57;;;;;;;9.43;4.55;;;15.10;99.20;;;;;;5036596;28;20083;-74
2021/08/10 05:15:23;;;;;;;9.23;5.35;;;15.10;99.20;;;;;;5053160;28;20443;-74
2021/08/10 05:17:48;;;;;;;11.02;5.97;;;15.10;99.10;;;;;;5052634;28;20040;-74
2021/08/10 05:20:14;;;;;;;9.80;5.60;;;15.10;99.20;;;;;;5052733;28;20037;-73
2021/08/10 05:22:41;;;;;;;11.57;4.95;;;15.10;99.20;;;;;;5036541;28;20029;-74
2021/08/10 05:25:10;;;;;;;9.95;5.00;;;15.10;99.20;;;;;;5052792;28;20025;-74
2021/08/10 05:27:36;;;;;;;10.90;4.88;;;15.10;99.20;;;;;;5052624;28;20477;-74
2021/08/10 05:30:02;;;;;;;9.27;4.75;;;15.10;99.20;;;;;;5052554;28;20045;-73
2021/08/10 05:32:28;;;;;;;8.70;4.68;;;15.20;99.30;;;;;;5052713;28;20557;-73
2021/08/10 05:34:53;;;;;;;10.13;5.72;;;15.10;99.20;;;;;;5053821;28;20092;-73
2021/08/10 05:37:19;;;;;;;10.82;5.20;;;15.20;99.30;;;;;;5053910;28;20492;-74
2021/08/10 05:39:45;;;;;;;15.27;5.38;;;15.20;99.30;;;;;;5054300;28;20029;-74
2021/08/10 05:42:11;;;;;;;10.40;5.47;;;15.20;99.30;;;;;;5035720;28;20045;-73
2021/08/10 05:44:36;;;;;;;9.65;5.15;;;15.20;99.30;;;;;;5052282;28;20241;-73
2021/08/10 05:47:02;;;;;;;13.80;5.13;;;15.20;99.60;;;;;;5053617;28;20100;-74
2021/08/10 05:49:28;;;;;;;10.57;4.75;;;15.30;99.30;;;;;;5053522;28;20093;-73
2021/08/10 05:51:53;;;;;;;9.93;5.25;;;15.30;99.40;;;;;;5053376;28;20025;-74
2021/08/10 05:54:19;;;;;;;9.90;5.00;;;15.30;99.40;;;;;;5052174;28;20037;-74
2021/08/10 05:56:46;;;;;;;11.27;5.15;;;15.40;99.40;;;;;;5052232;28;20041;-73
2021/08/10 05:59:12;;;;;;;10.05;5.38;;;15.30;99.30;;;;;;5052208;28;20385;-74
2021/08/10 06:01:38;;;;;;;17.80;5.68;;;15.30;99.30;;;;;;5051900;28;20143;-74
2021/08/10 06:04:05;;;;;;;11.50;5.00;;;15.40;99.40;;;;;;5053233;28;20536;-74
2021/08/10 06:06:34;;;;;;;8.40;4.90;;;15.40;99.40;;;;;;5053342;28;20381;-74
2021/08/10 06:09:00;;;;;;;8.52;4.20;;;15.40;99.40;;;;;;5051949;28;20554;-74
2021/08/10 06:11:26;;;;;;;13.98;4.68;;;15.50;99.30;;;;;;5052058;28;20025;-74
2021/08/10 06:13:52;;;;;;;11.23;4.43;;;15.50;99.20;;;;;;5053188;28;20028;-75
2021/08/10 06:16:17;;;;;;;7.88;4.50;;;15.50;99.20;;;;;;5051829;28;20052;-74
2021/08/10 06:18:43;;;;;;;8.15;4.32;;;15.60;99.10;;;;;;5051894;28;20035;-74
2021/08/10 06:21:09;;;;;;;8.38;4.38;;;15.60;99.10;;;;;;5051830;28;20028;-75
2021/08/10 06:23:34;;;;;;;10.18;5.00;;;15.60;99.10;;;;;;5035783;28;20171;-74
2021/08/10 06:26:00;;;;;;;12.13;4.95;;;15.70;98.90;;;;;;5052347;28;20544;-74
2021/08/10 06:28:25;;;;;;;8.45;4.07;;;15.80;98.90;;;;;;5052404;28;20080;-75
2021/08/10 06:30:51;;;;;;;8.40;4.10;;;15.80;99.20;;;;;;5035593;28;20030;-75
2021/08/10 06:33:17;;;;;;;7.68;4.32;;;16.00;99.00;;;;;;5052280;28;20057;-75
2021/08/10 06:35:42;;;;;;;12.20;4.32;;;16.10;98.90;;;;;;5051964;28;20051;-75
2021/08/10 06:38:08;;;;;;;9.00;3.85;;;16.20;98.70;;;;;;5051924;28;20036;-75
2021/08/10 06:40:34;;;;;;;9.10;4.47;;;16.30;98.60;;;;;;5035626;28;20542;-75
2021/08/10 06:42:59;;;;;;;9.77;4.35;;;16.30;98.50;;;;;;5052074;28;20435;-74
2021/08/10 06:45:25;;;;;;;10.88;4.65;;;16.30;98.30;;;;;;5051730;28;20025;-75
2021/08/10 06:47:52;;;;;;;8.80;4.25;;;16.40;98.30;;;;;;5035473;28;20033;-74
2021/08/10 06:50:18;;;;;;;7.95;3.95;;;16.40;98.00;;;;;;5051789;28;20031;-74
2021/08/10 06:52:46;;;;;;;8.45;4.30;;;16.50;98.10;;;;;;5051688;28;20025;-74
2021/08/10 06:55:12;;;;;;;9.60;4.53;;;16.50;98.00;;;;;;5051470;28;20035;-74
2021/08/10 06:57:38;;;;;;;9.90;4.35;;;16.60;97.70;;;;;;5061053;28;20021;-73
2021/08/10 07:00:06;;;;;;;16.35;4.63;;;16.60;97.60;;;;;;5052463;28;20017;-74
2021/08/10 07:02:31;;;;;;;7.78;3.70;;;16.70;97.60;;;;;;5051530;28;20393;-75
2021/08/10 07:04:57;;;;;;;9.38;4.47;;;16.70;97.40;;;;;;5064091;28;20022;-74
2021/08/10 07:07:22;;;;;;;9.90;4.68;;;16.70;97.30;;;;;;5063223;28;20112;-74
2021/08/10 07:09:48;;;;;;;7.10;3.88;;;16.80;97.30;;;;;;5059991;28;20029;-74
2021/08/10 07:12:14;;;;;;;8.23;4.03;;;16.80;97.30;;;;;;5061633;28;20112;-74
2021/08/10 07:14:39;;;;;;;7.80;3.97;;;16.90;97.30;;;;;;5061037;28;20024;-74
2021/08/10 07:17:05;;;;;;;9.27;4.53;;;17.00;97.30;;;;;;5061578;28;20025;-74
2021/08/10 07:19:31;;;;;;;9.65;4.15;;;17.10;97.00;;;;;;5061152;28;20098;-74
2021/08/10 07:21:56;;;;;;;6.90;3.70;;;17.20;96.80;;;;;;5060130;28;20029;-74
2021/08/10 07:24:22;;;;;;;9.30;4.88;;;17.20;96.90;;;;;;5065052;28;20579;-76
2021/08/10 07:26:48;;;;;;;14.30;4.82;;;17.30;96.60;;;;;;5066787;28;20052;-75
2021/08/10 07:29:14;;;;;;;8.88;4.32;;;17.30;96.20;;;;;;5069046;28;20041;-72
2021/08/10 07:31:40;;;;;;;9.45;4.75;;;17.40;96.00;;;;;;5063049;28;20024;-74
2021/08/10 07:34:06;;;;;;;6.50;3.72;;;17.40;95.70;;;;;;5054848;28;20025;-74
2021/08/10 07:36:32;;;;;;;11.73;4.35;;;17.40;96.20;;;;;;5054917;28;20039;-75
2021/08/10 07:38:57;;;;;;;11.15;4.78;;;17.50;95.50;;;;;;5054833;28;20538;-73
2021/08/10 07:41:23;;;;;;;10.88;4.80;;;17.50;95.70;;;;;;5038559;28;20083;-74
2021/08/10 07:43:48;;;;;;;9.98;4.32;;;17.60;95.40;;;;;;5054795;28;20507;-74
2021/08/10 07:46:14;;;;;;;7.85;3.95;;;17.60;95.40;;;;;;5055082;28;20029;-74
2021/08/10 07:48:40;;;;;;;8.00;4.03;;;17.70;95.30;;;;;;5037855;28;20385;-74
2021/08/10 07:51:06;;;;;;;10.23;4.50;;;17.80;95.40;;;;;;5054348;28;20017;-75
2021/08/10 07:53:31;;;;;;;10.63;4.32;;;17.90;95.10;;;;;;5054858;28;20033;-75
2021/08/10 07:55:57;;;;;;;9.02;3.85;;;17.90;94.70;;;;;;5054379;28;20029;-74
2021/08/10 07:58:23;;;;;;;9.73;5.28;;;18.00;94.80;;;;;;5056189;28;20166;-74
2021/08/10 08:00:48;;;;;;;7.72;3.67;;;17.90;94.10;;;;;;5054233;28;20079;-74
2021/08/10 08:03:15;;;;;;;8.20;4.60;;;17.90;94.50;;;;;;5055323;28;20033;-75
2021/08/10 08:05:41;;;;;;;7.43;3.95;;;17.90;94.30;;;;;;5047160;28;20029;-76
2021/08/10 08:08:06;;;;;;;9.40;4.18;;;17.90;94.30;;;;;;5069150;28;20035;-75
2021/08/10 08:10:35;;;;;;;11.52;4.80;;;18.00;94.20;;;;;;5071198;28;20377;-75
2021/08/10 08:13:01;;;;;;;11.07;5.10;;;18.00;94.10;;;;;;5053848;28;20044;-75
2021/08/10 08:15:26;;;;;;;10.10;3.97;;;18.00;94.00;;;;;;5053298;28;20388;-75
2021/08/10 08:17:52;;;;;;;11.18;4.25;;;18.10;94.10;;;;;;5056054;28;20108;-76
2021/08/10 08:20:18;;;;;;;10.02;4.35;;;18.10;93.80;;;;;;5048214;28;20484;-75
2021/08/10 08:22:44;;;;;;;9.95;4.30;;;18.10;93.70;;;;;;5054829;28;20025;-76
2021/08/10 08:25:11;;;;;;;7.30;3.55;;;18.20;93.80;;;;;;5066596;28;20021;-75
2021/08/10 08:27:37;;;;;;;9.65;3.90;;;18.20;93.90;;;;;;5051585;28;20463;-76
2021/08/10 08:30:06;;;;;;;9.13;3.70;;;18.20;93.90;;;;;;5049199;28;20048;-74
2021/08/10 08:32:31;;;;;;;8.40;3.67;;;18.20;93.70;;;;;;5052698;28;20025;-74
2021/08/10 08:34:57;;;;;;;6.47;3.00;;;18.30;93.70;;;;;;5059192;28;20142;-75
2021/08/10 08:37:22;;;;;;;9.40;3.55;;;18.40;93.70;;;;;;5051732;28;20031;-76
2021/08/10 08:39:48;;;;;;;6.45;3.08;;;18.40;93.50;;;;;;5050939;28;20025;-75
2021/08/10 08:42:14;;;;;;;7.07;3.15;;;18.50;93.10;;;;;;5036095;28;20032;-75
2021/08/10 08:44:40;;;;;;;6.88;3.05;;;18.60;93.00;;;;;;5058233;28;20056;-76
2021/08/10 08:47:07;;;;;;;7.05;2.97;;;18.60;92.80;;;;;;5059117;28;20025;-75
2021/08/10 08:49:34;;;;;;;6.07;2.92;;;18.60;92.70;;;;;;5059129;28;20024;-75
2021/08/10 08:52:03;;;;;;;4.90;2.28;;;18.60;92.30;;;;;;5053133;28;20021;-74
2021/08/10 08:54:30;;;;;;;6.35;2.30;;;18.70;92.50;;;;;;5052540;28;20048;-75
2021/08/10 08:56:56;;;;;;;4.68;2.30;;;18.80;92.30;;;;;;5053799;28;20058;-75
2021/08/10 08:59:22;;;;;;;10.05;2.50;;;18.90;92.00;;;;;;5038229;28;20116;-75
2021/08/10 09:01:49;;;;;;;5.63;1.88;;;19.00;91.50;;;;;;5074169;28;20048;-75
2021/08/10 09:04:16;;;;;;;6.45;2.38;;;19.00;91.10;;;;;;5066911;28;20025;-75
2021/08/10 09:06:41;;;;;;;8.38;2.88;;;19.00;90.90;;;;;;5072648;28;20036;-76
2021/08/10 09:09:27;;;;;;;9.13;3.03;;;18.90;90.60;;;;;;5072658;28;20024;-75
2021/08/10 09:12:08;;;;;;;5.95;2.42;;;19.00;90.80;;;;;;5072583;28;20152;-75
2021/08/10 09:14:53;;;;;;;8.15;2.55;;;18.90;90.60;;;;;;5073178;28;20024;-75
2021/08/10 09:17:21;;;;;;;5.40;2.00;;;18.90;90.80;;;;;;5072678;28;20033;-75
2021/08/10 09:19:58;;;;;;;5.22;2.28;;;19.00;90.80;;;;;;5072992;28;20023;-74
2021/08/10 09:22:27;;;;;;;4.25;2.28;;;19.10;90.60;;;;;;5074358;28;20032;-75
2021/08/10 09:25:12;;;;;;;8.13;3.00;;;19.20;90.40;;;;;;5074077;28;20043;-74
2021/08/10 09:27:40;;;;;;;7.03;2.97;;;19.10;90.20;;;;;;5074137;28;20039;-74
2021/08/10 09:30:24;;;;;;;6.88;2.90;;;19.10;90.30;;;;;;5074148;28;20550;-74
2021/08/10 09:32:53;;;;;;;5.85;2.40;;;19.20;90.20;;;;;;5072772;28;20494;-76
2021/08/10 09:35:21;;;;;;;8.00;3.60;;;19.20;90.10;;;;;;5074074;28;20029;-75
2021/08/10 09:38:06;;;;;;;10.35;3.13;;;19.20;90.00;;;;;;5072687;28;20016;-75
2021/08/10 09:40:33;;;;;;;5.72;2.70;;;19.20;90.10;;;;;;5073640;28;20491;-75
2021/08/10 09:43:32;;;;;;;5.82;2.50;;;19.20;90.20;;;;;;5073894;28;20036;-74
2021/08/10 09:46:14;;;;;;;5.43;2.50;;;19.20;90.30;;;;;;5072170;28;20020;-75
2021/08/10 09:49:02;;;;;;;6.30;2.55;;;19.20;90.30;;;;;;5073896;28;20020;-75
2021/08/10 09:51:29;;;;;;;9.82;3.08;;;19.30;90.70;;;;;;5073548;28;20377;-75
2021/08/10 09:54:01;;;;;;;5.40;2.63;;;19.40;90.40;;;;;;5073528;28;20523;-74
2021/08/10 09:56:55;;;;;;;6.78;2.10;;;19.40;90.40;;;;;;5073931;28;20052;-75
2021/08/10 09:59:47;;;;;;;5.32;2.20;;;19.40;89.30;;;;;;5073387;28;20361;-75
2021/08/10 10:02:23;;;;;;;5.35;2.13;;;19.40;89.50;;;;;;5073316;28;20059;-75
2021/08/10 10:04:56;;;;;;;4.28;1.80;;;19.60;89.50;;;;;;5073414;28;20033;-75
2021/08/10 10:07:22;;;;;;;4.47;1.70;;;19.70;89.80;;;;;;5066605;28;20021;-75
2021/08/10 10:09:49;;;;;;;3.92;1.67;;;19.90;89.00;;;;;;5052370;28;20067;-75
2021/08/10 10:12:19;;;;;;;4.40;1.83;;;19.90;87.50;;;;;;5053613;28;20071;-75
2021/08/10 10:14:45;;;;;;;3.95;1.52;;;19.90;87.30;;;;;;5053627;28;20483;-75
2021/08/10 10:17:12;;;;;;;6.30;1.80;;;20.00;87.90;;;;;;5052166;28;20029;-74
2021/08/10 10:19:40;;;;;;;4.80;1.92;;;20.10;87.20;;;;;;5019069;28;20021;-75
2021/08/10 10:22:17;;;;;;;5.18;2.20;;;20.30;87.30;;;;;;5052023;28;20060;-75
2021/08/10 10:25:02;;;;;;;5.45;1.70;;;20.60;86.70;;;;;;5052286;28;20033;-74
2021/08/10 10:27:28;;;;;;;4.47;1.63;;;20.70;85.30;;;;;;5053491;28;20036;-75
2021/08/10 10:29:55;;;;;;;4.50;1.83;;;20.90;85.40;;;;;;5053077;28;20123;-74
2021/08/10 10:32:22;;;;;;;5.30;1.52;;;21.00;83.80;;;;;;5053166;28;20028;-75
2021/08/10 10:34:49;;;;;;;5.55;1.67;;;21.10;83.40;;;;;;5052120;28;20025;-77
2021/08/10 10:37:23;;;;;;;7.50;2.10;;;21.30;83.10;;;;;;5063513;28;20025;-74
2021/08/10 10:39:55;;;;;;;5.05;2.00;;;21.60;82.50;;;;;;5060580;28;20039;-74
2021/08/10 10:42:22;;;;;;;3.72;1.85;;;21.90;81.20;;;;;;5065635;28;20407;-75
2021/08/10 10:44:52;;;;;;;5.82;1.70;;;22.20;78.50;;;;;;5064668;28;20024;-75
2021/08/10 10:47:20;;;;;;;4.97;1.48;;;22.30;77.10;;;;;;5060932;28;20373;-74
2021/08/10 10:50:13;;;;;;;6.70;2.20;;;22.30;75.90;;;;;;5053208;28;20033;-75
2021/08/10 10:52:39;;;;;;;3.53;1.20;;;22.80;75.20;;;;;;5052112;28;20098;-75
2021/08/10 10:55:06;;;;;;;4.32;1.20;;;23.40;75.50;;;;;;5053093;28;20021;-76
2021/08/10 10:57:31;;;;;;;4.97;1.30;;;23.70;73.60;;;;;;5053590;28;20100;-77
2021/08/10 11:00:12;;;;;;;5.07;1.58;;;24.10;71.90;;;;;;5056875;28;20052;-74
2021/08/10 11:02:39;;;;;;;4.22;1.70;;;24.70;69.40;;;;;;5055691;28;20028;-77
2021/08/10 11:05:17;;;;;;;3.95;1.33;;;25.00;69.50;;;;;;5055969;28;20017;-77
2021/08/10 11:07:47;;;;;;;5.05;1.58;;;25.00;68.90;;;;;;5055613;28;20358;-78
2021/08/10 11:10:39;;;;;;;4.57;1.35;;;25.00;68.80;;;;;;5055704;28;20064;-77
2021/08/10 11:13:25;;;;;;;5.65;1.50;;;24.90;66.30;;;;;;5056655;28;20024;-76
2021/08/10 11:15:51;;;;;;;4.38;1.45;;;24.80;65.00;;;;;;5060543;28;20539;-76
2021/08/10 11:18:17;;;;;;;4.05;1.33;;;24.70;65.00;;;;;;5067401;28;20025;-76
2021/08/10 11:20:48;;;;;;;4.72;1.48;;;24.60;65.20;;;;;;5058614;28;20116;-75
2021/08/10 11:23:28;;;;;;;6.53;1.80;;;24.50;65.50;;;;;;5055147;28;20119;-77
2021/08/10 11:26:13;;;;;;;4.85;1.40;;;24.50;65.80;;;;;;5056546;28;20028;-76
2021/08/10 11:28:52;;;;;;;4.88;1.65;;;24.50;65.80;;;;;;5055242;28;20040;-76
2021/08/10 11:31:36;;;;;;;7.32;1.77;;;24.40;66.10;;;;;;5056197;28;20539;-74
2021/08/10 11:34:03;;;;;;;5.05;1.42;;;24.30;65.70;;;;;;5056220;28;20139;-76
2021/08/10 11:36:29;;;;;;;7.63;1.90;;;24.20;65.40;;;;;;5054791;28;20028;-77
2021/08/10 11:38:55;;;;;;;7.25;1.95;;;24.10;65.40;;;;;;5055445;28;20025;-74
2021/08/10 11:41:26;;;;;;;5.18;1.65;;;23.90;65.70;;;;;;5058740;28;20392;-76
2021/08/10 11:43:55;;;;;;;4.07;1.58;;;23.90;65.80;;;;;;5072106;28;20059;-74
2021/08/10 11:46:29;;;;;;;4.65;1.58;;;23.80;66.00;;;;;;5066970;28;20059;-75
2021/08/10 11:48:57;;;;;;;4.93;1.60;;;23.80;66.40;;;;;;5085335;28;20013;-74
2021/08/10 11:51:30;;;;;;;6.00;1.80;;;24.00;66.40;;;;;;5065256;28;20148;-74
2021/08/10 11:53:58;;;;;;;4.63;1.52;;;24.20;65.90;;;;;;5055574;28;20029;-75
2021/08/10 11:56:31;;;;;;;5.38;1.77;;;24.20;65.50;;;;;;5054253;28;20082;-75
2021/08/10 11:58:58;;;;;;;5.67;2.10;;;24.40;65.10;;;;;;5063907;28;20071;-74
2021/08/10 12:01:24;;;;;;;4.32;1.67;;;24.60;64.70;;;;;;5061404;28;20040;-74
2021/08/10 12:03:51;;;;;;;5.70;1.52;;;24.80;64.20;;;;;;5074258;28;20060;-73
2021/08/10 12:06:25;;;;;;;5.25;1.33;;;25.00;63.60;;;;;;5075675;28;20036;-74
2021/08/10 12:08:50;;;;;;;5.88;1.88;;;25.20;63.40;;;;;;5069323;28;20017;-74
2021/08/10 12:11:23;;;;;;;7.07;1.90;;;25.40;63.30;;;;;;5059288;28;20029;-77
2021/08/10 12:13:48;;;;;;;4.28;1.70;;;25.60;62.30;;;;;;5061379;28;20040;-75
2021/08/10 12:16:14;;;;;;;5.68;1.55;;;25.60;61.90;;;;;;5064498;28;20037;-75
2021/08/10 12:18:50;;;;;;;5.57;1.58;;;25.50;61.80;;;;;;5065637;28;20499;-75
2021/08/10 12:21:18;;;;;;;6.22;1.70;;;25.40;61.80;;;;;;5064661;28;20040;-74
2021/08/10 12:23:50;;;;;;;4.90;1.48;;;25.40;62.20;;;;;;5066428;28;20365;-76
2021/08/10 12:26:19;;;;;;;4.18;1.70;;;25.40;62.10;;;;;;5053902;28;20062;-76
2021/08/10 12:29:04;;;;;;;5.82;1.90;;;25.40;62.20;;;;;;5060332;28;20036;-75
2021/08/10 12:31:34;;;;;;;4.18;1.77;;;25.70;61.80;;;;;;5053360;28;20033;-73
2021/08/10 12:34:00;;;;;;;6.93;1.95;;;25.90;61.70;;;;;;5058078;28;20032;-75
2021/08/10 12:36:26;;;;;;;4.53;1.70;;;26.20;61.50;;;;;;5056216;28;20037;-74
2021/08/10 12:38:53;;;;;;;5.13;1.77;;;26.40;61.20;;;;;;5060062;28;20033;-76
2021/08/10 12:41:23;;;;;;;7.10;2.00;;;26.60;60.50;;;;;;5054396;28;20025;-74
2021/08/10 12:43:52;;;;;;;4.45;1.65;;;26.80;59.40;;;;;;5057811;28;20036;-76
2021/08/10 12:46:26;;;;;;;5.63;1.67;;;26.80;59.10;;;;;;5064132;28;20014;-74
2021/08/10 12:49:31;;;;;;;5.80;1.90;;;26.70;58.60;;;;;;5054422;28;20017;-74
2021/08/10 12:52:05;;;;;;;4.90;1.63;;;26.90;58.20;;;;;;5056418;28;20033;-76